Time;durP1;ratioP1;P1;durP2;ratioP2;P2;SDS_P1;SDS_P2;PMS_P1;PMS_P2;Temp;Humidity;BMP_temperature;BMP_pressure;BME280_temperature;BME280_humidity;BME280_pressure;Samples;Min_cycle;Max_cycle;Signal;HPM_P1;HPM_P2
2023/08/30 00:44:17;;;;;;;1.73;1.10;;;23.80;48.00;;;;;;5069631;28;20410;-67
2023/08/30 00:46:44;;;;;;;1.75;1.27;;;23.80;48.00;;;;;;5074967;28;20516;-66
2023/08/30 00:49:10;;;;;;;1.17;1.00;;;23.80;48.00;;;;;;5061123;28;20137;-65
2023/08/30 00:51:36;;;;;;;2.10;1.10;;;23.80;48.00;;;;;;5055559;28;20321;-66
2023/08/30 00:54:02;;;;;;;1.63;1.20;;;23.80;48.00;;;;;;5066998;28;20044;-66
2023/08/30 00:56:29;;;;;;;1.98;1.20;;;23.80;47.90;;;;;;5044458;28;20025;-66
2023/08/30 00:58:56;;;;;;;2.83;1.60;;;23.80;47.90;;;;;;5053902;28;20032;-65
2023/08/30 01:01:22;;;;;;;2.78;1.45;;;23.80;47.90;;;;;;5038662;28;20116;-65
2023/08/30 01:03:48;;;;;;;2.60;1.42;;;23.80;47.80;;;;;;5062619;28;20033;-66
2023/08/30 01:06:13;;;;;;;1.27;0.98;;;23.80;47.80;;;;;;5075628;28;20081;-67
2023/08/30 01:08:42;;;;;;;1.65;1.40;;;23.80;47.80;;;;;;5047042;28;20110;-66
2023/08/30 01:11:27;;;;;;;1.58;1.38;;;23.80;47.80;;;;;;5061911;28;20056;-65
2023/08/30 01:14:18;;;;;;;1.50;1.27;;;23.80;47.80;;;;;;5041748;28;20133;-65
2023/08/30 01:16:44;;;;;;;1.65;1.02;;;23.80;47.70;;;;;;5053830;28;20488;-66
2023/08/30 01:19:42;;;;;;;2.10;1.40;;;23.80;47.80;;;;;;5053436;28;20024;-67
2023/08/30 01:22:19;;;;;;;1.40;1.20;;;23.80;47.70;;;;;;5045413;28;20041;-66
2023/08/30 01:25:11;;;;;;;1.58;1.10;;;23.80;47.70;;;;;;5046713;28;20040;-66
2023/08/30 01:27:38;;;;;;;1.85;1.20;;;23.70;47.70;;;;;;5071726;28;20028;-66
2023/08/30 01:30:07;;;;;;;1.70;1.20;;;23.70;48.30;;;;;;5069808;28;20039;-66
2023/08/30 01:32:34;;;;;;;1.42;1.10;;;23.80;47.70;;;;;;5067353;28;20399;-64
2023/08/30 01:35:01;;;;;;;1.50;1.30;;;23.70;47.70;;;;;;5061023;28;20479;-66
2023/08/30 01:37:28;;;;;;;2.10;1.20;;;23.70;47.70;;;;;;5064366;28;20036;-67
2023/08/30 01:39:58;;;;;;;2.55;1.20;;;23.70;47.70;;;;;;5075649;28;20033;-64
2023/08/30 01:42:27;;;;;;;1.52;1.10;;;23.80;47.70;;;;;;5052321;28;20075;-65
2023/08/30 01:44:57;;;;;;;2.20;1.20;;;23.70;47.70;;;;;;5059895;28;20024;-68
2023/08/30 01:47:27;;;;;;;1.77;1.35;;;23.80;47.70;;;;;;5064712;28;20055;-65
2023/08/30 01:49:56;;;;;;;1.88;1.20;;;23.70;47.70;;;;;;5075691;28;20165;-64
2023/08/30 01:52:24;;;;;;;1.73;1.20;;;23.70;47.70;;;;;;5047578;28;20130;-65
2023/08/30 01:54:53;;;;;;;1.70;1.25;;;23.70;47.70;;;;;;5071434;28;20029;-64
2023/08/30 01:57:19;;;;;;;1.90;1.20;;;23.70;47.70;;;;;;5058240;28;20028;-64
2023/08/30 01:59:45;;;;;;;4.53;1.42;;;23.70;47.70;;;;;;5067468;28;20380;-66
2023/08/30 02:02:11;;;;;;;2.03;1.40;;;23.70;47.70;;;;;;5060856;28;20051;-65
2023/08/30 02:04:36;;;;;;;1.73;1.17;;;23.70;47.70;;;;;;5060676;28;20335;-64
2023/08/30 02:07:04;;;;;;;1.67;1.30;;;23.70;47.70;;;;;;5070713;28;20077;-65
2023/08/30 02:09:47;;;;;;;1.20;0.93;;;23.70;47.70;;;;;;5065641;28;20020;-67
2023/08/30 02:12:17;;;;;;;1.40;1.10;;;23.70;47.70;;;;;;5060454;28;20121;-65
2023/08/30 02:14:47;;;;;;;3.15;1.30;;;23.70;47.70;;;;;;5053664;28;20040;-66
2023/08/30 02:17:17;;;;;;;2.45;1.40;;;23.70;47.70;;;;;;5069566;28;20028;-67
2023/08/30 02:19:44;;;;;;;1.70;1.20;;;23.70;47.70;;;;;;5071053;28;20147;-66
2023/08/30 02:22:11;;;;;;;1.67;1.10;;;23.70;47.70;;;;;;5079139;28;20380;-67
2023/08/30 02:24:37;;;;;;;1.33;1.08;;;23.70;47.80;;;;;;5053211;28;20464;-64
2023/08/30 02:27:03;;;;;;;1.92;1.20;;;23.70;47.70;;;;;;5062571;28;20132;-66
2023/08/30 02:29:29;;;;;;;1.98;1.60;;;23.70;47.80;;;;;;5062163;28;20032;-65
2023/08/30 02:31:55;;;;;;;1.52;1.30;;;23.60;47.70;;;;;;5059025;28;20048;-66
2023/08/30 02:34:21;;;;;;;3.10;1.23;;;23.60;47.70;;;;;;5067820;28;20037;-65
2023/08/30 02:36:47;;;;;;;1.45;1.27;;;23.60;47.70;;;;;;5091462;28;20100;-66
2023/08/30 02:39:17;;;;;;;1.40;1.13;;;23.60;47.80;;;;;;5069819;28;20105;-66
2023/08/30 02:41:43;;;;;;;1.60;1.20;;;23.60;47.70;;;;;;5049374;28;20050;-65
2023/08/30 02:44:11;;;;;;;1.58;1.23;;;23.60;47.80;;;;;;5047092;28;20019;-66
2023/08/30 02:46:37;;;;;;;1.35;1.23;;;23.60;47.80;;;;;;5074423;28;20039;-66
2023/08/30 02:49:05;;;;;;;1.25;1.08;;;23.60;47.80;;;;;;5066054;28;20121;-66
2023/08/30 02:51:31;;;;;;;1.20;0.90;;;23.60;47.80;;;;;;5065103;28;20040;-66
2023/08/30 02:53:57;;;;;;;2.40;1.50;;;23.60;47.80;;;;;;5073166;28;20040;-66
2023/08/30 02:56:23;;;;;;;1.77;1.20;;;23.60;47.90;;;;;;5060325;28;20052;-66
2023/08/30 02:58:49;;;;;;;2.05;1.40;;;23.60;47.90;;;;;;5078794;28;20504;-65
2023/08/30 03:01:15;;;;;;;1.30;1.20;;;23.60;47.90;;;;;;5050641;28;20029;-63
2023/08/30 03:03:41;;;;;;;2.15;1.60;;;23.60;47.90;;;;;;5046193;28;20037;-67
2023/08/30 03:06:07;;;;;;;2.13;1.38;;;23.60;47.90;;;;;;5055590;28;20035;-67
2023/08/30 03:08:32;;;;;;;1.45;1.35;;;23.60;47.90;;;;;;5055214;28;20158;-67
2023/08/30 03:11:12;;;;;;;1.70;1.45;;;23.60;47.90;;;;;;5065529;28;20028;-67
2023/08/30 03:13:44;;;;;;;1.77;1.40;;;23.60;47.90;;;;;;5024532;28;20546;-64
2023/08/30 03:16:15;;;;;;;1.67;1.33;;;23.60;47.90;;;;;;5055452;28;20104;-68
2023/08/30 03:18:42;;;;;;;1.52;1.30;;;23.60;48.00;;;;;;5056502;28;20036;-65
2023/08/30 03:21:08;;;;;;;1.50;1.10;;;23.60;48.00;;;;;;5056491;28;20024;-64
2023/08/30 03:23:35;;;;;;;1.42;1.13;;;23.60;48.00;;;;;;5055471;28;20105;-65
2023/08/30 03:26:09;;;;;;;2.78;1.40;;;23.50;47.90;;;;;;5042282;28;20029;-65
2023/08/30 03:28:36;;;;;;;2.28;1.40;;;23.60;48.00;;;;;;5054993;28;20036;-65
2023/08/30 03:31:02;;;;;;;1.58;1.17;;;23.60;48.00;;;;;;5064034;28;20174;-66
2023/08/30 03:33:28;;;;;;;2.10;1.40;;;23.50;48.00;;;;;;5074829;28;20037;-65
2023/08/30 03:35:54;;;;;;;1.80;1.35;;;23.50;48.00;;;;;;5068660;28;20039;-65
2023/08/30 03:38:20;;;;;;;1.75;1.40;;;23.50;48.00;;;;;;5061489;28;20063;-68
2023/08/30 03:40:46;;;;;;;2.00;1.42;;;23.60;47.90;;;;;;5050492;28;20174;-67
2023/08/30 03:43:12;;;;;;;2.08;1.58;;;23.50;47.90;;;;;;5041879;28;20095;-66
2023/08/30 03:45:38;;;;;;;2.08;1.58;;;23.50;47.90;;;;;;5068815;28;20056;-67
2023/08/30 03:48:04;;;;;;;2.13;1.77;;;23.50;47.80;;;;;;5045484;28;20055;-65
2023/08/30 03:50:30;;;;;;;1.77;1.40;;;23.50;47.80;;;;;;5060930;28;20020;-63
2023/08/30 03:52:56;;;;;;;2.70;2.05;;;23.50;47.70;;;;;;5067598;28;20063;-66
2023/08/30 03:55:22;;;;;;;1.80;1.52;;;23.50;47.70;;;;;;5066568;28;20088;-66
2023/08/30 03:57:48;;;;;;;2.97;1.45;;;23.50;47.60;;;;;;5072979;28;20392;-67
2023/08/30 04:00:15;;;;;;;2.55;1.83;;;23.50;47.60;;;;;;5071766;28;20127;-65
2023/08/30 04:02:40;;;;;;;1.95;1.48;;;23.50;47.60;;;;;;5093963;28;20084;-65
2023/08/30 04:05:08;;;;;;;2.00;1.58;;;23.50;47.60;;;;;;5075384;28;20028;-66
2023/08/30 04:07:36;;;;;;;1.85;1.63;;;23.50;47.60;;;;;;5048395;28;20415;-66
2023/08/30 04:10:06;;;;;;;3.42;2.20;;;23.50;47.60;;;;;;5056910;28;20036;-64
2023/08/30 04:12:31;;;;;;;2.35;1.80;;;23.50;47.60;;;;;;5038766;28;20033;-68
2023/08/30 04:14:57;;;;;;;2.00;1.67;;;23.50;47.60;;;;;;5055344;28;20404;-64
2023/08/30 04:17:23;;;;;;;2.35;1.70;;;23.50;47.60;;;;;;5053205;28;20470;-67
2023/08/30 04:19:52;;;;;;;2.05;1.60;;;23.50;47.60;;;;;;5054366;28;20119;-67
2023/08/30 04:22:19;;;;;;;2.58;1.60;;;23.50;47.60;;;;;;5052465;28;20051;-67
2023/08/30 04:24:46;;;;;;;3.17;1.83;;;23.50;47.60;;;;;;5071784;28;20028;-65
2023/08/30 04:27:12;;;;;;;2.70;1.90;;;23.50;47.60;;;;;;5041959;28;20033;-66
2023/08/30 04:29:38;;;;;;;2.08;1.52;;;23.50;47.60;;;;;;5080136;28;20094;-68
2023/08/30 04:32:05;;;;;;;2.03;1.50;;;23.50;47.60;;;;;;5063061;28;20060;-64
2023/08/30 04:34:32;;;;;;;3.42;1.55;;;23.50;47.60;;;;;;5052464;28;20065;-63
2023/08/30 04:36:58;;;;;;;2.67;2.05;;;23.40;47.50;;;;;;5055449;28;20044;-63
2023/08/30 04:39:24;;;;;;;3.17;2.03;;;23.50;47.60;;;;;;5048150;28;20021;-66
2023/08/30 04:41:52;;;;;;;2.83;1.90;;;23.40;47.50;;;;;;5052461;28;20029;-65
2023/08/30 04:44:19;;;;;;;2.55;1.90;;;23.50;47.60;;;;;;5064615;28;20023;-66
2023/08/30 04:46:45;;;;;;;1.90;1.70;;;23.40;47.50;;;;;;5037117;28;20093;-61
2023/08/30 04:49:12;;;;;;;3.33;1.85;;;23.40;47.50;;;;;;5046288;28;20479;-65
2023/08/30 04:51:37;;;;;;;4.50;1.80;;;23.50;47.60;;;;;;5056044;28;20120;-66
2023/08/30 04:54:05;;;;;;;2.30;1.50;;;23.40;47.50;;;;;;5066930;28;20492;-65
2023/08/30 04:56:31;;;;;;;2.38;1.77;;;23.40;47.60;;;;;;5044596;28;20510;-65
2023/08/30 04:58:57;;;;;;;2.88;1.92;;;23.50;47.60;;;;;;5034099;28;20032;-65
2023/08/30 05:01:23;;;;;;;3.22;2.17;;;23.40;47.50;;;;;;5048997;28;20087;-67
2023/08/30 05:03:52;;;;;;;3.28;2.00;;;23.40;47.50;;;;;;5054597;28;20094;-64
2023/08/30 05:06:19;;;;;;;2.65;1.83;;;23.40;47.50;;;;;;5035830;28;20367;-66
2023/08/30 05:08:45;;;;;;;4.80;1.65;;;23.40;47.50;;;;;;5057385;28;20101;-66
2023/08/30 05:11:11;;;;;;;2.50;1.70;;;23.40;47.60;;;;;;5054903;28;20458;-64
2023/08/30 05:13:37;;;;;;;2.10;1.90;;;23.40;47.60;;;;;;5063266;28;20047;-66
2023/08/30 05:16:03;;;;;;;3.55;1.88;;;23.40;47.50;;;;;;5043206;28;20051;-66
2023/08/30 05:18:29;;;;;;;3.15;1.95;;;23.40;47.50;;;;;;5067921;28;20029;-65
2023/08/30 05:20:55;;;;;;;1.77;1.50;;;23.40;47.50;;;;;;5052129;28;20024;-66
2023/08/30 05:23:21;;;;;;;2.50;1.92;;;23.40;47.50;;;;;;5079225;28;20029;-68
2023/08/30 05:25:47;;;;;;;2.40;1.80;;;23.40;47.50;;;;;;5050093;28;20132;-66
2023/08/30 05:28:14;;;;;;;2.13;1.65;;;23.40;47.50;;;;;;5069217;28;20036;-67
2023/08/30 05:30:43;;;;;;;1.70;1.40;;;23.40;47.50;;;;;;5047846;28;20051;-70
2023/08/30 05:33:27;;;;;;;1.95;1.60;;;23.40;47.60;;;;;;5036922;28;20182;-67
2023/08/30 05:36:11;;;;;;;;;;;23.40;47.50;;;;;;5035088;28;20029;-66
2023/08/30 05:38:56;;;;;;;2.25;1.90;;;23.40;47.50;;;;;;5059281;28;19970;-68
2023/08/30 05:41:44;;;;;;;2.03;1.60;;;23.40;47.50;;;;;;5070700;28;20112;-67
2023/08/30 05:44:10;;;;;;;2.63;1.75;;;23.40;47.60;;;;;;5054177;28;20110;-65
2023/08/30 05:46:36;;;;;;;2.83;2.13;;;23.30;47.50;;;;;;5053972;28;20047;-69
2023/08/30 05:49:03;;;;;;;2.35;1.77;;;23.40;47.50;;;;;;5048672;28;20447;-69
2023/08/30 05:51:29;;;;;;;2.55;1.90;;;23.40;47.50;;;;;;5071192;28;20052;-67
2023/08/30 05:53:55;;;;;;;2.50;1.83;;;23.40;47.50;;;;;;5075089;28;20059;-65
2023/08/30 05:56:21;;;;;;;2.92;1.83;;;23.40;47.50;;;;;;5072114;28;20024;-65
2023/08/30 05:58:47;;;;;;;2.28;1.55;;;23.40;47.50;;;;;;5064963;28;20081;-67
2023/08/30 06:01:14;;;;;;;2.42;1.75;;;23.40;47.50;;;;;;5071604;28;20210;-66
2023/08/30 06:03:40;;;;;;;2.70;1.60;;;23.40;47.50;;;;;;5071416;28;20027;-65
2023/08/30 06:06:06;;;;;;;2.28;1.88;;;23.40;47.50;;;;;;5067249;28;20179;-68
2023/08/30 06:08:32;;;;;;;2.70;1.70;;;23.40;47.50;;;;;;5072674;28;20403;-66
2023/08/30 06:10:58;;;;;;;2.08;1.67;;;23.40;47.60;;;;;;5088693;28;20043;-65
2023/08/30 06:13:24;;;;;;;2.70;1.80;;;23.40;47.60;;;;;;5075147;28;20211;-67
2023/08/30 06:15:52;;;;;;;3.42;1.95;;;23.40;47.70;;;;;;5084166;28;20036;-66
2023/08/30 06:18:19;;;;;;;2.65;1.90;;;23.40;47.70;;;;;;5038891;28;20353;-65
2023/08/30 06:20:45;;;;;;;3.50;2.13;;;23.40;47.80;;;;;;5076443;28;20028;-67
2023/08/30 06:23:13;;;;;;;2.22;1.80;;;23.40;47.80;;;;;;5059673;28;20313;-68
2023/08/30 06:25:39;;;;;;;2.25;1.73;;;23.40;47.90;;;;;;5076182;28;20463;-66
2023/08/30 06:28:05;;;;;;;2.83;1.70;;;23.40;47.90;;;;;;5084041;28;20021;-69
2023/08/30 06:30:31;;;;;;;2.47;2.00;;;23.40;47.90;;;;;;5053499;28;20032;-69
2023/08/30 06:32:57;;;;;;;2.50;2.03;;;23.40;48.60;;;;;;5073808;28;20040;-68
2023/08/30 06:35:23;;;;;;;2.33;1.77;;;23.40;48.00;;;;;;5055776;28;20457;-62
2023/08/30 06:37:50;;;;;;;2.80;2.00;;;23.40;48.10;;;;;;5075138;28;20262;-70
2023/08/30 06:40:16;;;;;;;3.53;1.95;;;23.40;48.70;;;;;;5055976;28;20119;-65
2023/08/30 06:42:42;;;;;;;3.10;2.03;;;23.40;48.10;;;;;;5073606;28;20024;-66
2023/08/30 06:45:08;;;;;;;3.13;1.98;;;23.40;48.20;;;;;;5075160;28;20025;-65
2023/08/30 06:47:34;;;;;;;1.92;1.63;;;23.40;48.30;;;;;;5041906;28;20033;-71
2023/08/30 06:50:01;;;;;;;2.63;2.00;;;23.40;48.30;;;;;;5082368;28;20426;-68
2023/08/30 06:52:27;;;;;;;3.55;1.90;;;23.40;48.40;;;;;;5094932;28;20134;-66
2023/08/30 06:54:53;;;;;;;2.45;2.25;;;23.40;48.40;;;;;;5088734;28;20321;-67
2023/08/30 06:57:19;;;;;;;3.38;1.77;;;23.40;48.50;;;;;;5056685;28;20028;-66
2023/08/30 06:59:45;;;;;;;6.07;1.75;;;23.50;48.60;;;;;;5075103;28;20119;-66
2023/08/30 07:02:10;;;;;;;2.88;1.80;;;23.40;48.50;;;;;;5041906;28;20120;-67
2023/08/30 07:04:36;;;;;;;1.73;1.45;;;23.40;48.50;;;;;;5072376;28;20104;-65
2023/08/30 07:07:02;;;;;;;3.10;1.73;;;23.40;48.50;;;;;;5048601;28;20102;-68
2023/08/30 07:09:29;;;;;;;2.30;1.80;;;23.40;48.40;;;;;;5071590;28;20359;-69
2023/08/30 07:11:58;;;;;;;2.72;1.90;;;23.50;48.50;;;;;;5084877;28;20472;-68
2023/08/30 07:14:24;;;;;;;1.83;1.48;;;23.40;48.40;;;;;;5067655;28;20078;-65
2023/08/30 07:16:50;;;;;;;2.60;2.00;;;23.40;48.40;;;;;;5073619;28;20374;-69
2023/08/30 07:19:16;;;;;;;3.00;1.90;;;23.40;48.40;;;;;;5072579;28;20105;-67
2023/08/30 07:21:43;;;;;;;2.97;1.73;;;23.40;48.40;;;;;;5085536;28;20036;-67
2023/08/30 07:24:09;;;;;;;2.88;1.63;;;23.40;48.40;;;;;;5072964;28;20065;-67
2023/08/30 07:26:35;;;;;;;2.63;1.60;;;23.40;48.40;;;;;;5067315;28;20042;-68
2023/08/30 07:29:04;;;;;;;1.60;1.30;;;23.40;48.40;;;;;;5067427;28;20028;-67
2023/08/30 07:31:31;;;;;;;3.58;2.35;;;23.40;48.40;;;;;;5061257;28;20040;-67
2023/08/30 07:33:59;;;;;;;2.83;1.67;;;23.40;48.50;;;;;;5066218;28;20127;-68
2023/08/30 07:36:29;;;;;;;2.10;1.55;;;23.40;48.50;;;;;;5057714;28;20479;-68
2023/08/30 07:38:55;;;;;;;2.78;1.67;;;23.40;48.50;;;;;;5063223;28;20029;-65
2023/08/30 07:41:21;;;;;;;2.30;1.73;;;23.40;48.60;;;;;;5051388;28;20071;-66
2023/08/30 07:43:48;;;;;;;2.30;1.55;;;23.40;48.60;;;;;;5076103;28;20419;-68
2023/08/30 07:46:13;;;;;;;2.67;1.63;;;23.40;48.60;;;;;;5094109;28;20024;-66
2023/08/30 07:48:39;;;;;;;2.35;1.50;;;23.40;48.70;;;;;;5065008;28;20155;-59
2023/08/30 07:51:05;;;;;;;2.67;1.63;;;23.40;48.70;;;;;;5068544;28;20166;-61
2023/08/30 07:53:31;;;;;;;2.95;1.40;;;23.40;48.80;;;;;;5062200;28;20025;-70
2023/08/30 07:55:57;;;;;;;2.67;1.73;;;23.40;49.00;;;;;;5084687;28;20028;-64
2023/08/30 07:58:23;;;;;;;2.45;1.70;;;23.40;49.10;;;;;;5065743;28;20201;-65
2023/08/30 08:00:53;;;;;;;5.05;1.50;;;23.40;49.10;;;;;;5075559;28;20131;-66
2023/08/30 08:03:22;;;;;;;3.05;1.60;;;23.40;49.20;;;;;;5075383;28;20092;-67
2023/08/30 08:05:48;;;;;;;2.30;1.65;;;23.40;49.30;;;;;;5090168;28;20032;-67
2023/08/30 08:08:14;;;;;;;2.05;1.40;;;23.40;49.20;;;;;;5073149;28;20082;-70
2023/08/30 08:10:42;;;;;;;3.20;1.83;;;23.40;49.30;;;;;;5089385;28;20044;-65
2023/08/30 08:13:08;;;;;;;1.80;1.30;;;23.40;49.30;;;;;;5072012;28;20040;-65
2023/08/30 08:15:34;;;;;;;2.85;1.65;;;23.40;49.40;;;;;;5080078;28;20031;-67
2023/08/30 08:18:01;;;;;;;2.80;1.90;;;23.40;49.40;;;;;;5074237;28;20894;-69
2023/08/30 08:20:30;;;;;;;2.78;1.80;;;23.40;49.40;;;;;;5071891;28;20032;-65
2023/08/30 08:22:56;;;;;;;2.72;1.65;;;23.40;49.40;;;;;;5072885;28;20128;-67
2023/08/30 08:25:23;;;;;;;1.80;1.27;;;23.40;49.40;;;;;;5053621;28;20028;-69
2023/08/30 08:27:50;;;;;;;2.85;1.70;;;23.40;49.50;;;;;;5089572;28;20103;-67
2023/08/30 08:30:16;;;;;;;2.10;1.20;;;23.40;49.50;;;;;;5074516;28;20039;-65
2023/08/30 08:32:46;;;;;;;2.40;1.65;;;23.40;49.50;;;;;;5093407;28;20036;-69
2023/08/30 08:35:12;;;;;;;2.65;1.63;;;23.40;49.50;;;;;;5088833;28;20031;-71
2023/08/30 08:37:37;;;;;;;2.75;1.70;;;23.40;49.60;;;;;;5093293;28;20024;-71
2023/08/30 08:40:08;;;;;;;2.72;1.73;;;23.40;49.60;;;;;;5085599;28;20033;-67
2023/08/30 08:42:35;;;;;;;2.38;1.60;;;23.40;49.70;;;;;;5079428;28;20748;-70
2023/08/30 08:45:04;;;;;;;2.55;1.70;;;23.40;49.80;;;;;;5072847;28;20032;-65
2023/08/30 08:47:30;;;;;;;2.83;1.75;;;23.40;50.00;;;;;;5081538;28;20047;-66
2023/08/30 08:49:57;;;;;;;4.40;1.80;;;23.40;50.10;;;;;;5069334;28;20133;-68
2023/08/30 08:52:24;;;;;;;2.92;1.50;;;23.40;50.20;;;;;;5069906;28;20037;-70
2023/08/30 08:54:51;;;;;;;4.50;1.50;;;23.40;50.30;;;;;;5091851;28;20023;-67
2023/08/30 08:57:19;;;;;;;2.72;1.55;;;23.40;50.30;;;;;;5092994;28;20031;-67
2023/08/30 08:59:45;;;;;;;2.25;1.30;;;23.30;50.30;;;;;;5071188;28;20348;-66
2023/08/30 09:02:15;;;;;;;3.53;1.60;;;23.40;50.40;;;;;;5057209;28;20040;-67
2023/08/30 09:04:41;;;;;;;2.80;1.65;;;23.40;50.50;;;;;;5073793;28;20048;-67
2023/08/30 09:07:07;;;;;;;1.75;1.27;;;23.40;50.50;;;;;;5071192;28;20077;-68
2023/08/30 09:09:34;;;;;;;3.83;1.58;;;23.40;50.50;;;;;;5068867;28;20040;-68
2023/08/30 09:12:00;;;;;;;2.10;1.40;;;23.40;50.60;;;;;;5092539;28;20069;-68
2023/08/30 09:14:26;;;;;;;2.13;1.65;;;23.40;50.70;;;;;;5079235;28;20036;-67
2023/08/30 09:16:56;;;;;;;2.97;1.23;;;23.40;50.80;;;;;;5072047;28;20093;-67
2023/08/30 09:19:22;;;;;;;3.05;1.40;;;23.40;50.80;;;;;;5062443;28;20062;-70
2023/08/30 09:22:00;;;;;;;1.65;1.27;;;23.40;50.80;;;;;;5089331;28;20301;-68
2023/08/30 09:24:37;;;;;;;4.85;1.50;;;23.40;50.80;;;;;;5069242;28;20039;-64
2023/08/30 09:27:03;;;;;;;2.50;1.63;;;23.40;50.90;;;;;;5070937;28;20073;-73
2023/08/30 09:29:29;;;;;;;2.15;1.38;;;23.40;51.00;;;;;;5072069;28;20029;-72
2023/08/30 09:31:55;;;;;;;1.98;1.35;;;23.40;51.00;;;;;;5072042;28;20086;-69
2023/08/30 09:34:25;;;;;;;1.77;1.38;;;23.30;50.90;;;;;;5071903;28;20056;-66
2023/08/30 09:36:51;;;;;;;2.15;1.20;;;23.40;51.00;;;;;;5071050;28;20028;-68
2023/08/30 09:39:18;;;;;;;1.85;1.20;;;23.40;51.00;;;;;;5072136;28;20017;-70
2023/08/30 09:41:46;;;;;;;2.45;1.50;;;23.30;51.00;;;;;;5037347;28;20028;-70
2023/08/30 09:44:13;;;;;;;1.73;1.05;;;23.40;51.10;;;;;;5071691;28;20040;-67
2023/08/30 09:46:44;;;;;;;1.70;1.20;;;23.30;51.10;;;;;;5070202;28;20025;-70
2023/08/30 09:49:11;;;;;;;1.70;1.10;;;23.30;51.10;;;;;;5083193;28;20055;-71
2023/08/30 09:51:43;;;;;;;1.83;1.17;;;23.30;51.20;;;;;;5071591;28;20040;-69
2023/08/30 09:54:17;;;;;;;1.33;1.15;;;23.30;51.20;;;;;;5091916;28;20118;-68
2023/08/30 09:56:44;;;;;;;1.65;1.10;;;23.30;51.30;;;;;;5074062;28;20081;-71
2023/08/30 09:59:11;;;;;;;1.77;1.00;;;23.40;51.30;;;;;;5074076;28;20020;-70
2023/08/30 10:01:39;;;;;;;2.05;1.10;;;23.40;51.40;;;;;;5090616;28;20396;-70
2023/08/30 10:04:09;;;;;;;1.30;1.00;;;23.30;51.40;;;;;;5091691;28;20604;-66
2023/08/30 10:06:37;;;;;;;2.00;1.15;;;23.30;51.40;;;;;;5071655;28;20119;-69
2023/08/30 10:09:07;;;;;;;1.40;1.00;;;23.30;51.50;;;;;;5054780;28;20331;-67
2023/08/30 10:11:38;;;;;;;1.55;1.00;;;23.40;51.60;;;;;;5091627;28;20107;-68
2023/08/30 10:14:05;;;;;;;0.98;0.80;;;23.40;51.60;;;;;;5091715;28;20093;-68
2023/08/30 10:16:41;;;;;;;1.88;1.00;;;23.40;51.60;;;;;;5091499;28;20040;-67
2023/08/30 10:19:24;;;;;;;1.33;0.95;;;23.40;51.70;;;;;;5089082;28;20029;-71
2023/08/30 10:22:08;;;;;;;1.25;0.88;;;23.40;51.80;;;;;;5073470;28;20043;-67
2023/08/30 10:24:43;;;;;;;1.58;1.00;;;23.30;51.70;;;;;;5091841;28;20039;-69
2023/08/30 10:27:11;;;;;;;1.58;0.90;;;23.30;51.80;;;;;;5091662;28;20119;-68
2023/08/30 10:29:39;;;;;;;1.42;1.00;;;23.30;51.80;;;;;;5084402;28;20032;-69
2023/08/30 10:32:05;;;;;;;1.42;1.00;;;23.40;51.90;;;;;;5070486;28;20389;-73
2023/08/30 10:34:34;;;;;;;1.35;0.98;;;23.40;52.00;;;;;;5044911;28;20044;-69
2023/08/30 10:37:01;;;;;;;1.42;1.00;;;23.40;52.00;;;;;;5050890;28;20120;-67
2023/08/30 10:39:37;;;;;;;1.48;0.90;;;23.30;52.00;;;;;;5033066;28;20116;-66
2023/08/30 10:42:15;;;;;;;1.42;1.20;;;23.40;52.10;;;;;;5062247;28;20362;-71
2023/08/30 10:45:04;;;;;;;1.50;1.20;;;23.40;52.20;;;;;;5036262;28;20424;-66
2023/08/30 10:47:35;;;;;;;1.83;1.02;;;23.30;52.20;;;;;;5073406;28;20137;-70
2023/08/30 10:50:06;;;;;;;1.00;0.90;;;23.40;52.30;;;;;;5072719;28;20109;-68
2023/08/30 10:52:32;;;;;;;1.40;1.10;;;23.40;52.30;;;;;;5091331;28;20032;-70
2023/08/30 10:55:07;;;;;;;3.13;1.13;;;23.40;52.40;;;;;;5075964;28;20034;-70
2023/08/30 10:57:33;;;;;;;0.90;0.80;;;23.40;52.50;;;;;;5092044;28;20029;-67
2023/08/30 11:00:18;;;;;;;1.50;1.00;;;23.40;52.50;;;;;;5093922;28;20042;-69
2023/08/30 11:02:51;;;;;;;1.23;1.00;;;23.40;52.50;;;;;;5094570;28;20020;-68
2023/08/30 11:05:19;;;;;;;1.38;1.00;;;23.40;53.20;;;;;;5095140;28;20118;-67
2023/08/30 11:07:46;;;;;;;1.30;0.95;;;23.40;52.60;;;;;;5073934;28;20141;-67
2023/08/30 11:10:12;;;;;;;1.67;1.10;;;23.40;52.70;;;;;;5076209;28;20186;-69
2023/08/30 11:12:45;;;;;;;1.33;0.90;;;23.40;52.70;;;;;;5094721;28;20214;-68
2023/08/30 11:15:15;;;;;;;1.10;0.77;;;23.40;52.80;;;;;;5094476;28;20032;-69
2023/08/30 11:17:42;;;;;;;1.17;1.00;;;23.40;52.80;;;;;;5092244;28;20034;-70
2023/08/30 11:20:13;;;;;;;1.85;1.00;;;23.40;52.80;;;;;;5094560;28;20064;-70
2023/08/30 11:22:44;;;;;;;0.95;0.85;;;23.40;52.90;;;;;;5094299;28;20028;-70
2023/08/30 11:25:12;;;;;;;0.88;0.80;;;23.40;52.90;;;;;;5090860;28;20054;-70
2023/08/30 11:27:38;;;;;;;1.45;1.00;;;23.40;53.00;;;;;;5074277;28;20025;-70
2023/08/30 11:30:05;;;;;;;1.25;1.00;;;23.50;53.10;;;;;;5056322;28;20185;-68
2023/08/30 11:32:34;;;;;;;1.20;1.00;;;23.40;53.10;;;;;;5074178;28;20037;-70
2023/08/30 11:35:01;;;;;;;1.00;0.88;;;23.50;53.20;;;;;;5073977;28;20032;-67
2023/08/30 11:37:27;;;;;;;1.42;1.00;;;23.50;53.20;;;;;;5073207;28;20346;-67
2023/08/30 11:39:55;;;;;;;1.98;1.27;;;23.50;53.20;;;;;;5086354;28;20032;-69
2023/08/30 11:42:22;;;;;;;1.23;0.88;;;23.50;53.20;;;;;;5089495;28;20020;-65
2023/08/30 11:44:49;;;;;;;1.10;0.93;;;23.50;53.20;;;;;;5066730;28;20040;-68
2023/08/30 11:47:27;;;;;;;1.10;1.00;;;23.50;53.20;;;;;;5073513;28;20063;-67
2023/08/30 11:49:55;;;;;;;1.13;1.02;;;23.50;53.20;;;;;;5072242;28;20049;-65
2023/08/30 11:52:23;;;;;;;1.02;0.77;;;23.50;53.20;;;;;;5072487;28;20044;-67
2023/08/30 11:54:50;;;;;;;2.13;1.30;;;23.50;53.10;;;;;;5072326;28;20082;-72
2023/08/30 11:57:16;;;;;;;1.08;0.98;;;23.60;53.10;;;;;;5073913;28;20052;-67
2023/08/30 11:59:42;;;;;;;1.10;0.80;;;23.60;53.10;;;;;;5043109;28;20037;-66
2023/08/30 12:02:11;;;;;;;2.00;0.90;;;23.60;53.00;;;;;;5054711;28;20041;-66
2023/08/30 12:04:41;;;;;;;1.30;0.90;;;23.60;53.00;;;;;;5065035;28;20159;-66
2023/08/30 12:07:08;;;;;;;1.30;0.90;;;23.60;52.90;;;;;;5070823;28;20170;-66
2023/08/30 12:09:34;;;;;;;1.15;0.80;;;23.70;52.90;;;;;;5075903;28;20440;-68
2023/08/30 12:12:12;;;;;;;1.45;0.90;;;23.70;52.80;;;;;;5055149;28;20316;-66
2023/08/30 12:14:38;;;;;;;1.50;0.88;;;23.70;52.70;;;;;;5073133;28;20029;-66
2023/08/30 12:17:05;;;;;;;3.55;1.05;;;23.70;52.60;;;;;;5064632;28;20035;-67
2023/08/30 12:19:32;;;;;;;1.33;0.77;;;23.70;52.40;;;;;;5075280;28;20414;-67
2023/08/30 12:22:04;;;;;;;1.10;0.60;;;23.70;52.40;;;;;;5072390;28;20042;-65
2023/08/30 12:24:44;;;;;;;1.80;0.82;;;23.70;52.20;;;;;;5072916;28;20029;-67
2023/08/30 12:27:09;;;;;;;1.10;0.70;;;23.70;52.10;;;;;;5075090;28;20349;-67
2023/08/30 12:29:36;;;;;;;1.67;1.02;;;23.70;52.00;;;;;;5092964;28;20024;-65
2023/08/30 12:32:02;;;;;;;1.30;0.80;;;23.70;51.80;;;;;;5054755;28;20337;-65
2023/08/30 12:34:28;;;;;;;1.42;0.70;;;23.70;51.70;;;;;;5055107;28;20033;-67
2023/08/30 12:36:55;;;;;;;1.20;0.90;;;23.70;51.50;;;;;;5071687;28;20040;-67
2023/08/30 12:39:21;;;;;;;1.63;0.82;;;23.70;51.40;;;;;;5072346;28;20102;-65
2023/08/30 12:41:47;;;;;;;1.38;0.70;;;23.70;51.20;;;;;;5075234;28;20077;-66
2023/08/30 12:44:13;;;;;;;2.00;1.05;;;23.70;51.00;;;;;;5054848;28;20033;-67
2023/08/30 12:46:39;;;;;;;1.58;0.80;;;23.80;50.90;;;;;;5071764;28;20035;-67
2023/08/30 12:49:05;;;;;;;1.40;0.70;;;23.80;50.70;;;;;;5072314;28;20033;-66
2023/08/30 12:51:31;;;;;;;1.30;0.80;;;23.80;50.60;;;;;;5089088;28;20073;-67
2023/08/30 12:53:57;;;;;;;1.83;0.65;;;23.80;50.50;;;;;;5078224;28;20075;-65
2023/08/30 12:56:23;;;;;;;2.03;0.90;;;23.80;50.40;;;;;;5061626;28;20032;-68
2023/08/30 12:58:49;;;;;;;1.52;0.80;;;23.80;50.30;;;;;;5050585;28;20017;-67
2023/08/30 13:01:14;;;;;;;1.88;0.80;;;23.80;50.30;;;;;;5072161;28;20024;-66
2023/08/30 13:03:40;;;;;;;2.65;1.00;;;23.80;50.30;;;;;;5053037;28;20028;-65
2023/08/30 13:06:06;;;;;;;1.90;1.20;;;23.80;50.30;;;;;;5077786;28;20127;-64
2023/08/30 13:08:32;;;;;;;2.88;1.00;;;23.80;50.20;;;;;;5067237;28;20395;-66
2023/08/30 13:11:01;;;;;;;2.45;1.00;;;23.90;50.20;;;;;;5062696;28;20056;-67
2023/08/30 13:13:27;;;;;;;1.50;0.82;;;23.90;50.10;;;;;;5078881;28;20159;-65
2023/08/30 13:15:53;;;;;;;2.35;1.30;;;23.90;50.60;;;;;;5079063;28;20111;-65
2023/08/30 13:18:19;;;;;;;1.90;1.10;;;23.90;49.90;;;;;;5069472;28;20052;-65
2023/08/30 13:20:45;;;;;;;2.33;1.00;;;24.00;49.90;;;;;;5063272;28;20138;-65
2023/08/30 13:23:11;;;;;;;3.08;1.02;;;24.00;49.70;;;;;;5060467;28;20366;-66
2023/08/30 13:25:40;;;;;;;1.50;1.10;;;24.00;49.70;;;;;;5047734;28;20025;-67
2023/08/30 13:28:07;;;;;;;2.40;1.05;;;24.00;49.60;;;;;;5050477;28;20036;-68
2023/08/30 13:30:33;;;;;;;2.58;1.20;;;24.00;49.50;;;;;;5073227;28;20036;-68
2023/08/30 13:33:00;;;;;;;3.83;1.10;;;24.00;49.60;;;;;;5038894;28;20056;-68
2023/08/30 13:35:26;;;;;;;2.00;0.98;;;24.00;49.60;;;;;;5066821;28;20132;-68